Time;durP1;ratioP1;P1;durP2;ratioP2;P2;SDS_P1;SDS_P2;PMS_P1;PMS_P2;Temp;Humidity;BMP_temperature;BMP_pressure;BME280_temperature;BME280_humidity;BME280_pressure;Samples;Min_cycle;Max_cycle;Signal;HPM_P1;HPM_P2
2023/03/18 00:02:02;;;;;;;5.27;2.73;;;;;;;;;;5014927;28;20204;-89
2023/03/18 00:04:30;;;;;;;3.97;2.70;;;;;;;;;;5016643;28;20297;-89
2023/03/18 00:06:57;;;;;;;4.43;2.70;;;;;;;;;;5016478;28;20271;-89
2023/03/18 00:09:25;;;;;;;4.20;2.40;;;;;;;;;;5002020;28;20268;-90
2023/03/18 00:11:52;;;;;;;6.17;3.13;;;;;;;;;;4996583;28;20209;-89
2023/03/18 00:14:21;;;;;;;4.03;2.90;;;;;;;;;;4995630;28;20260;-89
2023/03/18 00:16:49;;;;;;;4.00;2.90;;;;;;;;;;4989276;28;20202;-89
2023/03/18 00:19:18;;;;;;;3.33;3.00;;;;;;;;;;4987572;28;20205;-88
2023/03/18 00:21:46;;;;;;;5.13;3.10;;;;;;;;;;4996570;28;20308;-89
2023/03/18 00:24:14;;;;;;;5.77;3.80;;;;;;;;;;4996741;28;20216;-89
2023/03/18 00:26:42;;;;;;;5.97;3.43;;;;;;;;;;4989959;28;20209;-89
2023/03/18 00:29:10;;;;;;;5.27;3.63;;;;;;;;;;4996468;28;20209;-89
2023/03/18 00:31:38;;;;;;;5.20;3.70;;;;;;;;;;4996753;28;20281;-89
2023/03/18 00:34:06;;;;;;;4.87;3.60;;;;;;;;;;4988530;28;20201;-89
2023/03/18 00:36:36;;;;;;;3.60;2.63;;;;;;;;;;5000960;28;20220;-89
2023/03/18 00:39:03;;;;;;;4.47;3.20;;;;;;;;;;4996567;28;20201;-89
2023/03/18 00:41:35;;;;;;;5.20;3.10;;;;;;;;;;4988963;28;20260;-89
2023/03/18 00:44:02;;;;;;;3.40;2.70;;;;;;;;;;4993899;28;20229;-89
2023/03/18 00:46:30;;;;;;;5.27;2.70;;;;;;;;;;4993589;28;20219;-89
2023/03/18 00:48:59;;;;;;;4.23;2.30;;;;;;;;;;4990664;28;20292;-88
2023/03/18 00:51:27;;;;;;;5.00;3.57;;;;;;;;;;4995889;28;20194;-89
2023/03/18 00:53:57;;;;;;;4.33;3.13;;;;;;;;;;4996725;28;20198;-89
2023/03/18 00:56:31;;;;;;;3.67;2.73;;;;;;;;;;4996149;28;20248;-89
2023/03/18 00:58:59;;;;;;;6.93;2.80;;;;;;;;;;4992232;28;20197;-89
2023/03/18 01:01:27;;;;;;;7.60;4.00;;;;;;;;;;4975079;28;20205;-89
2023/03/18 01:03:55;;;;;;;4.17;3.00;;;;;;;;;;4992338;28;20198;-89
2023/03/18 01:06:23;;;;;;;5.43;3.03;;;;;;;;;;4983055;28;20206;-89
2023/03/18 01:08:51;;;;;;;8.87;3.33;;;;;;;;;;4988529;28;20216;-89
2023/03/18 01:11:20;;;;;;;3.50;3.00;;;;;;;;;;5012207;28;20204;-89
2023/03/18 01:13:47;;;;;;;2.60;2.40;;;;;;;;;;5014713;28;20283;-90
2023/03/18 01:16:15;;;;;;;6.07;2.90;;;;;;;;;;5009286;28;20232;-89
2023/03/18 01:18:42;;;;;;;3.93;2.90;;;;;;;;;;4996385;28;20215;-91
2023/03/18 01:21:11;;;;;;;5.57;3.03;;;;;;;;;;5012297;28;20209;-89
2023/03/18 01:23:38;;;;;;;6.40;2.87;;;;;;;;;;5015714;28;20201;-89
2023/03/18 01:26:06;;;;;;;3.67;2.70;;;;;;;;;;5005170;28;20263;-89
2023/03/18 01:28:35;;;;;;;4.17;3.13;;;;;;;;;;5015125;28;20204;-90
2023/03/18 01:31:03;;;;;;;7.33;3.93;;;;;;;;;;4996546;28;20204;-89
2023/03/18 01:33:30;;;;;;;7.73;4.10;;;;;;;;;;5008093;28;20210;-90
2023/03/18 01:36:01;;;;;;;6.43;3.80;;;;;;;;;;5017885;28;20271;-89
2023/03/18 01:38:29;;;;;;;5.13;3.53;;;;;;;;;;4986128;28;20209;-90
2023/03/18 01:40:57;;;;;;;5.50;3.00;;;;;;;;;;5013716;28;20200;-89
2023/03/18 01:43:26;;;;;;;3.73;2.90;;;;;;;;;;5010322;28;20201;-90
2023/03/18 01:46:00;;;;;;;6.70;2.93;;;;;;;;;;5012673;28;20212;-89
2023/03/18 01:48:29;;;;;;;4.43;2.80;;;;;;;;;;5012858;28;20207;-89
2023/03/18 01:50:59;;;;;;;4.90;2.63;;;;;;;;;;5009848;28;20200;-89
2023/03/18 01:53:28;;;;;;;4.00;2.70;;;;;;;;;;5012915;28;20205;-89
2023/03/18 01:55:56;;;;;;;4.03;2.77;;;;;;;;;;5007461;28;20235;-89
2023/03/18 01:58:26;;;;;;;4.67;2.80;;;;;;;;;;5006918;28;20218;-89
2023/03/18 02:00:58;;;;;;;4.03;2.60;;;;;;;;;;4998425;28;20212;-89
2023/03/18 02:03:27;;;;;;;3.83;2.80;;;;;;;;;;5008494;28;20205;-89
2023/03/18 02:05:55;;;;;;;5.13;3.17;;;;;;;;;;5010718;28;20275;-89
2023/03/18 02:08:22;;;;;;;5.50;2.90;;;;;;;;;;5011768;28;20211;-89
2023/03/18 02:10:50;;;;;;;3.80;2.40;;;;;;;;;;5008128;28;20216;-89
2023/03/18 02:13:18;;;;;;;3.83;2.50;;;;;;;;;;5009307;28;20297;-89
2023/03/18 02:15:47;;;;;;;5.90;2.80;;;;;;;;;;5011934;28;20312;-90
2023/03/18 02:18:18;;;;;;;3.37;2.57;;;;;;;;;;5014417;28;20224;-89
2023/03/18 02:20:52;;;;;;;4.63;2.43;;;;;;;;;;5009850;28;20197;-89
2023/03/18 02:23:25;;;;;;;4.63;2.50;;;;;;;;;;5008859;28;20213;-89
2023/03/18 02:25:56;;;;;;;6.00;2.70;;;;;;;;;;5008687;28;20216;-89
2023/03/18 02:28:26;;;;;;;7.77;2.70;;;;;;;;;;5009624;28;20204;-89
2023/03/18 02:30:54;;;;;;;4.33;2.47;;;;;;;;;;5006030;28;20201;-89
2023/03/18 02:33:23;;;;;;;5.50;2.50;;;;;;;;;;5013380;28;20209;-89
2023/03/18 02:36:05;;;;;;;4.23;2.57;;;;;;;;;;5002508;28;20308;-90
2023/03/18 02:38:33;;;;;;;4.07;2.13;;;;;;;;;;5009816;28;20215;-89
2023/03/18 02:41:01;;;;;;;4.17;2.27;;;;;;;;;;5016098;28;20310;-89
2023/03/18 02:43:31;;;;;;;4.20;1.90;;;;;;;;;;4988168;28;20210;-89
2023/03/18 02:46:05;;;;;;;3.97;2.20;;;;;;;;;;5010480;28;20207;-89
2023/03/18 02:48:35;;;;;;;4.90;2.40;;;;;;;;;;5002476;28;20212;-89
2023/03/18 02:51:02;;;;;;;3.13;2.27;;;;;;;;;;5011089;28;20211;-89
2023/03/18 02:53:29;;;;;;;3.00;2.33;;;;;;;;;;5012939;28;20201;-89
2023/03/18 02:55:57;;;;;;;4.43;2.17;;;;;;;;;;5012979;28;20216;-88
2023/03/18 02:58:24;;;;;;;5.23;2.20;;;;;;;;;;5013760;28;20205;-90
2023/03/18 03:00:53;;;;;;;3.03;2.30;;;;;;;;;;5017417;28;20200;-89
2023/03/18 03:03:20;;;;;;;4.13;2.17;;;;;;;;;;5013089;28;20209;-89
2023/03/18 03:05:48;;;;;;;3.30;2.20;;;;;;;;;;5008301;28;20213;-88
2023/03/18 03:08:15;;;;;;;3.50;2.33;;;;;;;;;;4993094;28;20202;-89
2023/03/18 03:10:43;;;;;;;4.10;2.30;;;;;;;;;;5009902;28;20219;-89
2023/03/18 03:13:10;;;;;;;2.77;2.30;;;;;;;;;;5012128;28;20288;-89
2023/03/18 03:15:38;;;;;;;4.27;2.30;;;;;;;;;;5011763;28;20228;-89
2023/03/18 03:18:08;;;;;;;3.23;2.20;;;;;;;;;;4992033;28;20212;-89
2023/03/18 03:20:37;;;;;;;5.17;2.23;;;;;;;;;;4990592;28;20205;-89
2023/03/18 03:23:05;;;;;;;2.60;2.40;;;;;;;;;;5011583;28;20197;-89
2023/03/18 03:25:33;;;;;;;2.63;2.30;;;;;;;;;;5007810;28;20204;-89
2023/03/18 03:28:00;;;;;;;3.40;2.40;;;;;;;;;;5009797;28;20201;-89
2023/03/18 03:30:27;;;;;;;4.00;2.60;;;;;;;;;;5014502;28;20303;-89
2023/03/18 03:32:55;;;;;;;4.87;2.50;;;;;;;;;;5012879;28;20200;-89
2023/03/18 03:35:24;;;;;;;4.13;2.53;;;;;;;;;;5010495;28;20197;-89
2023/03/18 03:37:52;;;;;;;4.53;2.40;;;;;;;;;;5011954;28;20291;-89
2023/03/18 03:40:20;;;;;;;2.63;2.30;;;;;;;;;;5012580;28;20208;-90
2023/03/18 03:42:48;;;;;;;3.40;2.33;;;;;;;;;;5009263;28;20205;-89
2023/03/18 03:45:17;;;;;;;5.97;2.90;;;;;;;;;;5007965;28;20209;-89
2023/03/18 03:47:46;;;;;;;3.13;2.27;;;;;;;;;;5013732;28;20216;-89
2023/03/18 03:50:14;;;;;;;5.30;3.00;;;;;;;;;;5013118;28;20258;-89
2023/03/18 03:52:43;;;;;;;4.90;3.07;;;;;;;;;;5011167;28;20205;-89
2023/03/18 03:55:12;;;;;;;4.17;2.60;;;;;;;;;;5010356;28;20208;-89
2023/03/18 03:57:39;;;;;;;6.67;2.90;;;;;;;;;;5011870;28;20223;-89
2023/03/18 04:00:09;;;;;;;3.67;2.33;;;;;;;;;;5010598;28;20237;-89
2023/03/18 04:02:36;;;;;;;5.07;2.97;;;;;;;;;;5003085;28;20201;-89
2023/03/18 04:05:04;;;;;;;5.10;2.57;;;;;;;;;;5006567;28;20230;-89
2023/03/18 04:07:31;;;;;;;6.07;2.60;;;;;;;;;;5004387;28;20201;-89
2023/03/18 04:10:00;;;;;;;4.13;2.90;;;;;;;;;;4992869;28;20206;-89
2023/03/18 04:12:28;;;;;;;2.53;2.20;;;;;;;;;;5007384;28;20259;-89
2023/03/18 04:14:55;;;;;;;5.53;2.60;;;;;;;;;;5011308;28;20204;-90
2023/03/18 04:17:26;;;;;;;4.30;2.50;;;;;;;;;;5008954;28;20224;-89
2023/03/18 04:19:53;;;;;;;3.97;2.77;;;;;;;;;;5011318;28;20201;-89
2023/03/18 04:22:21;;;;;;;4.80;2.53;;;;;;;;;;4998809;28;20209;-89
2023/03/18 04:24:48;;;;;;;5.13;2.73;;;;;;;;;;5004147;28;20205;-89
2023/03/18 04:27:18;;;;;;;3.27;2.63;;;;;;;;;;5016342;28;20205;-89
2023/03/18 04:29:45;;;;;;;3.20;2.60;;;;;;;;;;5013617;28;20208;-89
2023/03/18 04:32:13;;;;;;;3.93;2.80;;;;;;;;;;5014558;28;20209;-89
2023/03/18 04:34:40;;;;;;;3.83;3.10;;;;;;;;;;5014625;28;20228;-89
2023/03/18 04:37:09;;;;;;;6.30;2.60;;;;;;;;;;5011911;28;20228;-88
2023/03/18 04:39:36;;;;;;;6.10;3.30;;;;;;;;;;5009468;28;20239;-89
2023/03/18 04:42:03;;;;;;;4.77;2.90;;;;;;;;;;5015422;28;20212;-89
2023/03/18 04:44:32;;;;;;;5.47;3.00;;;;;;;;;;4993272;28;20205;-90
2023/03/18 04:47:00;;;;;;;3.20;2.40;;;;;;;;;;4996534;28;20223;-89
2023/03/18 04:49:27;;;;;;;4.20;2.50;;;;;;;;;;5014824;28;20208;-89
2023/03/18 04:51:55;;;;;;;6.83;2.63;;;;;;;;;;5012246;28;20204;-89
2023/03/18 04:54:22;;;;;;;4.07;2.43;;;;;;;;;;5014957;28;20264;-90
2023/03/18 04:56:49;;;;;;;3.67;2.50;;;;;;;;;;5006450;28;20229;-89
2023/03/18 04:59:17;;;;;;;2.83;2.23;;;;;;;;;;5014862;28;20215;-89
2023/03/18 05:01:46;;;;;;;2.60;2.30;;;;;;;;;;5012724;28;20213;-89
2023/03/18 05:04:13;;;;;;;2.57;2.07;;;;;;;;;;5002266;28;20300;-89
2023/03/18 05:06:41;;;;;;;2.80;2.10;;;;;;;;;;5011687;28;20209;-89
2023/03/18 05:09:08;;;;;;;3.57;2.33;;;;;;;;;;5001584;28;20220;-89
2023/03/18 05:11:36;;;;;;;3.63;2.40;;;;;;;;;;4997637;28;20213;-89
2023/03/18 05:14:03;;;;;;;2.77;2.23;;;;;;;;;;5007125;28;20200;-89
2023/03/18 05:16:30;;;;;;;3.57;2.20;;;;;;;;;;5014036;28;20221;-89
2023/03/18 05:18:59;;;;;;;4.63;2.60;;;;;;;;;;4995715;28;20204;-89
2023/03/18 05:21:26;;;;;;;4.83;2.60;;;;;;;;;;5009424;28;20203;-88
2023/03/18 05:23:54;;;;;;;3.57;2.53;;;;;;;;;;5015550;28;20218;-89
2023/03/18 05:26:22;;;;;;;4.00;2.40;;;;;;;;;;5010693;28;20221;-89
2023/03/18 05:28:49;;;;;;;4.73;2.47;;;;;;;;;;5006946;28;20200;-89
2023/03/18 05:31:16;;;;;;;6.33;2.60;;;;;;;;;;5005849;28;20209;-89
2023/03/18 05:33:43;;;;;;;3.93;2.40;;;;;;;;;;5008793;28;20216;-89
2023/03/18 05:36:12;;;;;;;3.20;2.40;;;;;;;;;;5014114;28;20204;-90
2023/03/18 05:38:45;;;;;;;3.70;2.50;;;;;;;;;;5014818;28;20248;-90
2023/03/18 05:41:13;;;;;;;3.00;2.00;;;;;;;;;;5011570;28;20207;-89
2023/03/18 05:43:40;;;;;;;3.73;2.70;;;;;;;;;;5008253;28;20197;-88
2023/03/18 05:46:07;;;;;;;3.87;2.03;;;;;;;;;;5011768;28;20288;-89
2023/03/18 05:48:35;;;;;;;4.07;2.57;;;;;;;;;;5014945;28;20215;-89
2023/03/18 05:51:03;;;;;;;2.83;2.53;;;;;;;;;;5003426;28;20209;-89
2023/03/18 05:53:32;;;;;;;4.13;2.90;;;;;;;;;;4999843;28;20238;-90
2023/03/18 05:56:00;;;;;;;3.50;2.87;;;;;;;;;;5014395;28;20207;-90
2023/03/18 05:58:30;;;;;;;2.53;2.33;;;;;;;;;;5013831;28;20308;-90
2023/03/18 06:00:58;;;;;;;6.43;2.80;;;;;;;;;;4990190;28;20208;-89
2023/03/18 06:03:26;;;;;;;3.27;2.37;;;;;;;;;;5009969;28;20204;-90
2023/03/18 06:05:53;;;;;;;4.80;3.00;;;;;;;;;;5012152;28;20205;-89
2023/03/18 06:08:21;;;;;;;4.53;2.83;;;;;;;;;;5013481;28;20211;-90
2023/03/18 06:10:50;;;;;;;3.87;2.97;;;;;;;;;;5009747;28;20212;-90
2023/03/18 06:13:17;;;;;;;4.47;2.80;;;;;;;;;;5013718;28;20203;-90
2023/03/18 06:15:45;;;;;;;3.57;2.47;;;;;;;;;;5009250;28;20201;-90
2023/03/18 06:18:13;;;;;;;5.90;2.60;;;;;;;;;;5005340;28;20331;-90
2023/03/18 06:20:41;;;;;;;5.27;2.83;;;;;;;;;;5003177;28;20209;-90
2023/03/18 06:23:08;;;;;;;3.27;2.90;;;;;;;;;;5015015;28;20278;-89
2023/03/18 06:25:37;;;;;;;5.70;3.07;;;;;;;;;;5007580;28;20216;-89
2023/03/18 06:28:06;;;;;;;3.83;3.07;;;;;;;;;;4991639;28;20256;-89
2023/03/18 06:30:33;;;;;;;6.87;4.10;;;;;;;;;;5012199;28;20255;-90
2023/03/18 06:33:01;;;;;;;6.20;4.23;;;;;;;;;;5013308;28;20208;-90
2023/03/18 06:35:30;;;;;;;7.13;3.93;;;;;;;;;;5013983;28;20207;-90
2023/03/18 06:37:57;;;;;;;9.20;7.50;;;;;;;;;;5006324;28;20209;-89
2023/03/18 06:40:25;;;;;;;15.03;10.90;;;;;;;;;;5013529;28;20208;-89
2023/03/18 06:42:52;;;;;;;18.70;14.10;;;;;;;;;;4995369;28;20205;-90
2023/03/18 06:45:22;;;;;;;13.13;10.47;;;;;;;;;;5008762;28;20216;-89
2023/03/18 06:47:49;;;;;;;10.53;5.63;;;;;;;;;;5007754;28;20296;-89
2023/03/18 06:50:17;;;;;;;9.83;7.50;;;;;;;;;;5009094;28;20197;-90
2023/03/18 06:52:44;;;;;;;3.60;3.23;;;;;;;;;;5009232;28;20261;-90
2023/03/18 06:55:11;;;;;;;5.90;3.50;;;;;;;;;;5012707;28;20197;-89
2023/03/18 06:57:39;;;;;;;4.53;2.40;;;;;;;;;;5005016;28;20228;-90
2023/03/18 07:00:07;;;;;;;4.03;2.93;;;;;;;;;;5013146;28;20208;-89
2023/03/18 07:02:36;;;;;;;4.80;2.40;;;;;;;;;;5012646;28;20263;-89
2023/03/18 07:05:04;;;;;;;4.80;2.50;;;;;;;;;;5004094;28;20279;-89
2023/03/18 07:07:31;;;;;;;2.70;2.30;;;;;;;;;;5013203;28;20197;-89
2023/03/18 07:09:59;;;;;;;4.87;2.93;;;;;;;;;;5007943;28;20244;-89
2023/03/18 07:12:27;;;;;;;2.87;2.23;;;;;;;;;;5008222;28;20283;-90
2023/03/18 07:14:55;;;;;;;4.47;2.57;;;;;;;;;;5010613;28;20200;-92
2023/03/18 07:17:23;;;;;;;4.57;2.40;;;;;;;;;;5013339;28;20263;-91
2023/03/18 07:19:52;;;;;;;4.47;2.50;;;;;;;;;;5009975;28;20295;-90
2023/03/18 07:22:20;;;;;;;3.43;2.30;;;;;;;;;;5008997;28;20201;-91
2023/03/18 07:24:47;;;;;;;4.33;2.17;;;;;;;;;;5009008;28;20212;-90
2023/03/18 07:27:15;;;;;;;5.50;2.13;;;;;;;;;;5002232;28;20224;-90
2023/03/18 07:29:42;;;;;;;5.93;2.23;;;;;;;;;;5004533;28;20205;-90
2023/03/18 07:32:10;;;;;;;3.10;2.10;;;;;;;;;;5007959;28;20296;-90
2023/03/18 07:34:37;;;;;;;3.17;1.70;;;;;;;;;;5003958;28;20291;-90
2023/03/18 07:37:06;;;;;;;2.43;1.83;;;;;;;;;;5007058;28;20235;-91
2023/03/18 07:39:33;;;;;;;5.33;1.90;;;;;;;;;;5007625;28;20283;-90
2023/03/18 07:42:01;;;;;;;3.33;1.67;;;;;;;;;;5006691;28;20215;-89
2023/03/18 07:44:28;;;;;;;4.37;1.93;;;;;;;;;;5007158;28;20255;-91
2023/03/18 07:46:55;;;;;;;7.17;2.50;;;;;;;;;;5008484;28;20194;-90
2023/03/18 07:49:23;;;;;;;4.13;1.90;;;;;;;;;;5012205;28;20208;-90
2023/03/18 07:51:51;;;;;;;7.27;2.20;;;;;;;;;;5005961;28;20202;-91
2023/03/18 07:54:19;;;;;;;4.77;2.20;;;;;;;;;;5007775;28;20263;-91
2023/03/18 07:56:47;;;;;;;3.07;2.00;;;;;;;;;;5010996;28;20288;-92
2023/03/18 07:59:14;;;;;;;3.13;1.90;;;;;;;;;;5009480;28;20216;-91
2023/03/18 08:01:42;;;;;;;3.20;2.00;;;;;;;;;;5006420;28;20202;-90
2023/03/18 08:04:09;;;;;;;5.17;2.13;;;;;;;;;;5013176;28;20205;-90
2023/03/18 08:06:37;;;;;;;3.23;1.97;;;;;;;;;;5012796;28;20209;-90
2023/03/18 08:09:05;;;;;;;2.50;2.03;;;;;;;;;;5003515;28;20212;-91
2023/03/18 08:11:34;;;;;;;3.73;1.90;;;;;;;;;;5009376;28;20285;-92
2023/03/18 08:14:01;;;;;;;5.13;1.80;;;;;;;;;;5011697;28;20284;-90
2023/03/18 08:16:28;;;;;;;2.17;1.97;;;;;;;;;;5015901;28;20312;-91
2023/03/18 08:18:56;;;;;;;3.33;2.13;;;;;;;;;;5011544;28;20216;-91
2023/03/18 08:21:23;;;;;;;3.20;1.87;;;;;;;;;;5008681;28;20205;-91
2023/03/18 08:23:50;;;;;;;3.43;1.80;;;;;;;;;;5010737;28;20292;-88
2023/03/18 08:26:18;;;;;;;4.77;1.90;;;;;;;;;;5007358;28;20280;-90
2023/03/18 08:28:46;;;;;;;1.93;1.50;;;;;;;;;;5011779;28;20280;-91
2023/03/18 08:31:14;;;;;;;3.20;1.73;;;;;;;;;;5006481;28;20205;-90
2023/03/18 08:33:42;;;;;;;3.93;1.80;;;;;;;;;;5010422;28;20227;-92
2023/03/18 08:36:10;;;;;;;2.27;1.80;;;;;;;;;;5006959;28;20212;-92
2023/03/18 08:38:38;;;;;;;4.97;1.80;;;;;;;;;;5004963;28;20213;-90
2023/03/18 08:41:05;;;;;;;3.40;1.90;;;;;;;;;;5007358;28;20424;-91
2023/03/18 08:43:32;;;;;;;2.57;1.80;;;;;;;;;;5010411;28;20216;-90
2023/03/18 08:46:01;;;;;;;2.93;1.77;;;;;;;;;;5009021;28;20226;-90
2023/03/18 08:48:29;;;;;;;3.80;1.63;;;;;;;;;;5011437;28;20197;-91
2023/03/18 08:50:57;;;;;;;2.23;2.00;;;;;;;;;;5011806;28;20216;-92
2023/03/18 08:53:24;;;;;;;2.83;1.70;;;;;;;;;;5010532;28;20214;-92
2023/03/18 08:55:51;;;;;;;3.77;2.10;;;;;;;;;;5012348;28;20292;-92
2023/03/18 08:58:18;;;;;;;2.53;1.80;;;;;;;;;;5009380;28;20252;-91
2023/03/18 09:00:46;;;;;;;4.03;1.80;;;;;;;;;;5001884;28;20236;-92
2023/03/18 09:03:15;;;;;;;5.43;1.93;;;;;;;;;;5008783;28;20228;-91
2023/03/18 09:05:42;;;;;;;3.50;1.60;;;;;;;;;;4994650;28;20217;-93
2023/03/18 09:08:10;;;;;;;2.43;1.70;;;;;;;;;;5002419;28;20294;-93
2023/03/18 09:10:40;;;;;;;2.40;1.60;;;;;;;;;;5011467;28;20224;-93
2023/03/18 09:13:07;;;;;;;2.57;1.87;;;;;;;;;;5004769;28;20201;-90
2023/03/18 09:15:34;;;;;;;2.87;1.90;;;;;;;;;;5014458;28;20201;-92
2023/03/18 09:18:02;;;;;;;3.43;2.07;;;;;;;;;;4996199;28;20309;-92
2023/03/18 09:20:32;;;;;;;3.27;1.90;;;;;;;;;;5004380;28;20208;-91
2023/03/18 09:22:59;;;;;;;3.83;2.30;;;;;;;;;;5012143;28;20204;-91
2023/03/18 09:25:26;;;;;;;5.63;2.00;;;;;;;;;;5010976;28;20196;-95
2023/03/18 09:27:54;;;;;;;2.83;1.83;;;;;;;;;;4997512;28;20209;-92
2023/03/18 09:30:22;;;;;;;3.30;1.90;;;;;;;;;;5004953;28;20217;-92
2023/03/18 09:32:49;;;;;;;2.57;1.90;;;;;;;;;;5004492;28;20243;-89
2023/03/18 09:35:17;;;;;;;4.38;1.95;;;;;;;;;;5005039;28;20297;-87
2023/03/18 09:37:46;;;;;;;2.83;1.70;;;;;;;;;;5006884;28;20220;-88
2023/03/18 09:40:18;;;;;;;4.75;2.33;;;;;;;;;;5005070;28;20216;-87
2023/03/18 09:42:52;;;;;;;3.88;2.17;;;;;;;;;;5010776;28;20213;-88
2023/03/18 09:45:23;;;;;;;3.20;2.00;;;;;;;;;;4999031;28;20206;-88
2023/03/18 09:47:57;;;;;;;3.27;2.07;;;;;;;;;;5009154;28;20205;-88
2023/03/18 09:50:31;;;;;;;3.35;2.30;;;;;;;;;;5003894;28;20209;-88
2023/03/18 09:53:06;;;;;;;4.45;2.17;;;;;;;;;;5006357;28;20193;-88
2023/03/18 09:55:39;;;;;;;2.90;1.83;;;;;;;;;;5008985;28;20201;-88
2023/03/18 09:58:09;;;;;;;3.05;1.70;;;;;;;;;;4998587;28;20221;-88
2023/03/18 10:00:38;;;;;;;4.50;1.95;;;;;;;;;;5000439;28;20205;-89
2023/03/18 10:03:06;;;;;;;3.17;1.60;;;;;;;;;;5014193;28;20264;-88
2023/03/18 10:05:36;;;;;;;2.50;1.83;;;;;;;;;;5010162;28;20251;-88
2023/03/18 10:08:09;;;;;;;2.90;1.75;;;;;;;;;;5004746;28;20252;-88
2023/03/18 10:10:38;;;;;;;3.55;1.90;;;;;;;;;;5007708;28;20272;-88
2023/03/18 10:13:09;;;;;;;2.38;1.70;;;;;;;;;;5003835;28;20218;-88
2023/03/18 10:15:41;;;;;;;3.25;1.85;;;;;;;;;;5014445;28;20208;-88
2023/03/18 10:18:11;;;;;;;3.08;2.10;;;;;;;;;;5010282;28;20283;-88
2023/03/18 10:20:52;;;;;;;4.25;1.73;;;;;;;;;;4994848;28;20388;-88
2023/03/18 10:23:23;;;;;;;2.50;1.80;;;;;;;;;;5012509;28;20218;-88
2023/03/18 10:25:53;;;;;;;16.90;4.18;;;;;;;;;;5012076;28;20232;-88
2023/03/18 10:28:40;;;;;;;20.48;3.78;;;;;;;;;;5006358;28;20220;-88
2023/03/18 10:31:12;;;;;;;5.05;1.75;;;;;;;;;;5003634;28;20205;-88
2023/03/18 10:33:45;;;;;;;15.18;2.92;;;;;;;;;;5008746;28;20208;-88
2023/03/18 10:36:13;;;;;;;4.75;2.10;;;;;;;;;;5005038;28;20213;-88
2023/03/18 10:38:44;;;;;;;4.45;1.90;;;;;;;;;;5007767;28;20232;-88
2023/03/18 10:41:16;;;;;;;11.50;3.20;;;;;;;;;;4999426;28;20229;-89
2023/03/18 10:43:43;;;;;;;4.72;2.10;;;;;;;;;;5012354;28;20240;-88
2023/03/18 10:46:15;;;;;;;4.70;2.10;;;;;;;;;;5004064;28;20204;-89
2023/03/18 10:48:44;;;;;;;4.40;2.30;;;;;;;;;;5007554;28;20201;-88
2023/03/18 10:51:15;;;;;;;3.08;1.90;;;;;;;;;;5011038;28;20205;-89
2023/03/18 10:53:47;;;;;;;2.70;1.55;;;;;;;;;;5005165;28;20296;-89
2023/03/18 10:56:15;;;;;;;6.40;2.25;;;;;;;;;;5000043;28;20231;-89
2023/03/18 10:58:43;;;;;;;33.10;6.03;;;;;;;;;;5003183;28;20235;-89
2023/03/18 11:01:12;;;;;;;3.30;2.10;;;;;;;;;;5001229;28;20292;-89
2023/03/18 11:03:42;;;;;;;21.63;4.70;;;;;;;;;;5002144;28;20316;-89
2023/03/18 11:06:15;;;;;;;6.65;2.22;;;;;;;;;;5009440;28;20316;-89
2023/03/18 11:08:43;;;;;;;9.55;3.15;;;;;;;;;;5003681;28;20203;-89
2023/03/18 11:11:26;;;;;;;4.95;2.08;;;;;;;;;;5002412;28;20308;-89
2023/03/18 11:13:54;;;;;;;55.40;7.03;;;;;;;;;;5006223;28;20197;-89
2023/03/18 11:16:24;;;;;;;7.05;2.55;;;;;;;;;;5001176;28;20208;-89
2023/03/18 11:18:53;;;;;;;5.13;1.92;;;;;;;;;;5007769;28;20336;-89
2023/03/18 11:21:20;;;;;;;4.38;2.35;;;;;;;;;;5006176;28;20212;-89
2023/03/18 11:24:07;;;;;;;2.92;1.88;;;;;;;;;;5001420;28;20209;-89
2023/03/18 11:26:45;;;;;;;5.40;2.10;;;;;;;;;;4993283;28;20233;-89
2023/03/18 11:29:14;;;;;;;4.15;1.85;;;;;;;;;;5008452;28;20212;-89
2023/03/18 11:31:49;;;;;;;4.03;2.10;;;;;;;;;;4997806;28;20232;-89
2023/03/18 11:34:18;;;;;;;2.80;1.90;;;;;;;;;;5002120;28;20200;-89
2023/03/18 11:36:54;;;;;;;4.43;1.90;;;;;;;;;;5006649;28;20231;-89
2023/03/18 11:39:23;;;;;;;2.13;1.85;;;;;;;;;;5006488;28;20279;-89
2023/03/18 11:41:51;;;;;;;4.20;1.95;;;;;;;;;;5009353;28;20274;-89
2023/03/18 11:44:19;;;;;;;5.90;2.03;;;;;;;;;;5008665;28;20216;-89
2023/03/18 11:46:49;;;;;;;3.58;1.75;;;;;;;;;;5006259;28;20209;-89
2023/03/18 11:49:17;;;;;;;6.35;1.80;;;;;;;;;;5014113;28;20216;-89
2023/03/18 11:51:47;;;;;;;8.30;2.60;;;;;;;;;;5005545;28;20219;-89
2023/03/18 11:54:35;;;;;;;5.72;2.10;;;;;;;;;;5011793;28;20201;-89
2023/03/18 11:57:09;;;;;;;4.75;1.90;;;;;;;;;;4968508;28;20205;-89
2023/03/18 11:59:47;;;;;;;3.70;1.80;;;;;;;;;;5004349;28;20225;-89
2023/03/18 12:02:24;;;;;;;3.03;1.80;;;;;;;;;;5003402;28;20292;-89
2023/03/18 12:05:16;;;;;;;5.88;1.88;;;;;;;;;;5015199;28;20216;-89
2023/03/18 12:07:49;;;;;;;4.32;1.90;;;;;;;;;;4972558;28;20217;-89
2023/03/18 12:10:21;;;;;;;3.65;1.83;;;;;;;;;;5013806;28;20295;-90
2023/03/18 12:12:54;;;;;;;3.55;1.90;;;;;;;;;;5001251;28;20212;-89
2023/03/18 12:15:24;;;;;;;4.25;1.80;;;;;;;;;;5017177;28;20222;-89
2023/03/18 12:17:58;;;;;;;3.65;1.67;;;;;;;;;;5003824;28;20210;-89
2023/03/18 12:20:39;;;;;;;4.70;1.73;;;;;;;;;;5012584;28;20277;-90
2023/03/18 12:23:12;;;;;;;2.92;1.95;;;;;;;;;;5013734;28;20213;-90
2023/03/18 12:25:46;;;;;;;3.60;1.90;;;;;;;;;;5016763;28;20231;-89
2023/03/18 12:28:18;;;;;;;3.38;1.42;;;;;;;;;;5014708;28;20290;-89
2023/03/18 12:31:00;;;;;;;4.70;1.77;;;;;;;;;;5004789;28;20212;-89
2023/03/18 12:33:39;;;;;;;4.18;1.75;;;;;;;;;;4998735;28;20232;-89
2023/03/18 12:36:13;;;;;;;3.28;1.80;;;;;;;;;;5003769;28;20216;-94
2023/03/18 12:38:51;;;;;;;3.15;2.03;;;;;;;;;;4995155;28;20248;-90
2023/03/18 12:41:19;;;;;;;2.95;1.70;;;;;;;;;;5008108;28;20213;-90
2023/03/18 12:43:59;;;;;;;2.90;1.80;;;;;;;;;;5012254;28;20216;-89
2023/03/18 12:46:29;;;;;;;5.90;1.83;;;;;;;;;;5003379;28;20232;-93
2023/03/18 12:48:58;;;;;;;5.32;1.80;;;;;;;;;;5008141;28;20201;-91
2023/03/18 12:51:31;;;;;;;4.03;1.48;;;;;;;;;;5008081;28;20201;-91
2023/03/18 12:54:01;;;;;;;3.72;1.65;;;;;;;;;;5009224;28;20195;-92
2023/03/18 12:56:30;;;;;;;1.88;1.58;;;;;;;;;;5001673;28;20208;-91
2023/03/18 12:59:06;;;;;;;3.30;1.58;;;;;;;;;;5013239;28;20231;-92
2023/03/18 13:01:36;;;;;;;3.58;1.83;;;;;;;;;;5007647;28;20215;-90
2023/03/18 13:04:06;;;;;;;2.55;1.52;;;;;;;;;;5009099;28;20221;-92
2023/03/18 13:06:36;;;;;;;4.03;1.90;;;;;;;;;;5014905;28;20236;-91
2023/03/18 13:09:06;;;;;;;2.88;1.60;;;;;;;;;;5011754;28;20304;-90
2023/03/18 13:11:44;;;;;;;2.92;1.65;;;;;;;;;;5004465;28;20201;-92
2023/03/18 13:14:18;;;;;;;3.45;1.48;;;;;;;;;;5010485;28;20208;-90
2023/03/18 13:16:48;;;;;;;5.13;1.85;;;;;;;;;;4995384;28;20228;-91
2023/03/18 13:19:17;;;;;;;4.97;1.60;;;;;;;;;;5010112;28;20228;-92
2023/03/18 13:21:47;;;;;;;1.73;1.35;;;;;;;;;;5006521;28;20199;-91
2023/03/18 13:24:24;;;;;;;3.30;1.90;;;;;;;;;;5007700;28;20204;-91
2023/03/18 13:27:09;;;;;;;5.40;1.80;;;;;;;;;;5003089;28;20300;-91
2023/03/18 13:29:41;;;;;;;3.03;1.65;;;;;;;;;;5009880;28;20221;-91
2023/03/18 13:32:20;;;;;;;3.78;1.80;;;;;;;;;;5002342;28;20232;-90
2023/03/18 13:34:55;;;;;;;4.28;1.58;;;;;;;;;;5010570;28;20287;-90
2023/03/18 13:37:35;;;;;;;3.53;1.90;;;;;;;;;;5010129;28;20247;-90
2023/03/18 13:40:21;;;;;;;2.58;1.58;;;;;;;;;;5005422;28;20231;-91
2023/03/18 13:42:49;;;;;;;3.38;1.60;;;;;;;;;;5006271;28;20225;-90
2023/03/18 13:45:23;;;;;;;3.47;1.80;;;;;;;;;;5009762;28;20218;-90
2023/03/18 13:47:56;;;;;;;2.63;1.48;;;;;;;;;;5006240;28;20296;-91
2023/03/18 13:50:28;;;;;;;4.45;1.77;;;;;;;;;;5010001;28;20201;-90
2023/03/18 13:52:56;;;;;;;5.78;1.80;;;;;;;;;;5008631;28;20223;-90
2023/03/18 13:55:27;;;;;;;4.38;2.03;;;;;;;;;;5005908;28;20200;-91
2023/03/18 13:57:58;;;;;;;4.05;1.60;;;;;;;;;;5010333;28;20213;-90
2023/03/18 14:00:29;;;;;;;4.68;1.77;;;;;;;;;;5004373;28;20221;-90
2023/03/18 14:03:16;;;;;;;9.27;2.38;;;;;;;;;;5010512;28;20200;-90
2023/03/18 14:05:44;;;;;;;3.70;1.65;;;;;;;;;;5008995;28;20212;-90
2023/03/18 14:08:30;;;;;;;3.53;1.67;;;;;;;;;;5009163;28;20302;-92
2023/03/18 14:11:12;;;;;;;4.63;1.83;;;;;;;;;;4966680;28;1177664;-93
2023/03/18 14:13:40;;;;;;;2.30;1.60;;;;;;;;;;4985239;28;20203;-92
2023/03/18 14:16:11;;;;;;;6.07;1.65;;;;;;;;;;5005097;28;20220;-91
2023/03/18 14:18:39;;;;;;;3.78;1.45;;;;;;;;;;4999004;28;20207;-93
2023/03/18 14:21:07;;;;;;;5.28;1.70;;;;;;;;;;5000346;28;20233;-92
2023/03/18 14:23:38;;;;;;;3.10;1.67;;;;;;;;;;5009456;28;20201;-94
2023/03/18 14:26:07;;;;;;;4.22;1.50;;;;;;;;;;5000973;28;20209;-92
2023/03/18 14:28:45;;;;;;;3.70;1.40;;;;;;;;;;5001918;28;20229;-91
2023/03/18 14:31:22;;;;;;;6.18;2.05;;;;;;;;;;4999909;28;20296;-92
2023/03/18 14:33:59;;;;;;;6.10;1.80;;;;;;;;;;5001938;28;20201;-95
2023/03/18 14:36:44;;;;;;;5.75;1.90;;;;;;;;;;5004986;28;20212;-91
2023/03/18 14:39:14;;;;;;;3.65;1.55;;;;;;;;;;5006804;28;20201;-92
2023/03/18 14:41:43;;;;;;;5.35;1.70;;;;;;;;;;5006773;28;20213;-93
2023/03/18 14:44:19;;;;;;;2.67;1.40;;;;;;;;;;5015402;28;20285;-93
2023/03/18 14:46:50;;;;;;;3.55;1.70;;;;;;;;;;5008136;28;20228;-93
2023/03/18 14:49:32;;;;;;;3.15;1.50;;;;;;;;;;5004134;28;20209;-93
2023/03/18 14:52:01;;;;;;;2.80;1.50;;;;;;;;;;5010892;28;20292;-94
2023/03/18 14:54:32;;;;;;;3.08;1.50;;;;;;;;;;5006622;28;20232;-95
2023/03/18 14:57:04;;;;;;;3.47;1.35;;;;;;;;;;5002619;28;20206;-92
2023/03/18 14:59:31;;;;;;;4.80;1.70;;;;;;;;;;5002596;28;20260;-93